Time;durP1;ratioP1;P1;durP2;ratioP2;P2;SDS_P1;SDS_P2;PMS_P1;PMS_P2;Temp;Humidity;BMP_temperature;BMP_pressure;BME280_temperature;BME280_humidity;BME280_pressure;Samples;Min_cycle;Max_cycle;Signal;HPM_P1;HPM_P2
2023/05/01 00:00:06;;;;;;;5.18;3.28;;;;;;;21.28;56.58;100958.78;5053990;28;20052;-56
2023/05/01 00:02:33;;;;;;;5.25;3.15;;;;;;;21.27;56.50;100960.63;5053658;28;20041;-56
2023/05/01 00:05:02;;;;;;;4.50;3.58;;;;;;;21.26;56.58;100958.91;5054247;28;20048;-56
2023/05/01 00:07:30;;;;;;;5.13;2.83;;;;;;;21.27;56.56;100954.34;5053805;28;20056;-56
2023/05/01 00:09:57;;;;;;;3.10;2.65;;;;;;;21.25;56.48;100957.22;5053659;28;20509;-56
2023/05/01 00:12:25;;;;;;;6.30;3.28;;;;;;;21.26;56.54;100955.34;5053918;28;20049;-57
2023/05/01 00:14:53;;;;;;;3.85;2.88;;;;;;;21.25;56.47;100957.22;5053673;28;20379;-56
2023/05/01 00:17:21;;;;;;;6.45;3.17;;;;;;;21.24;56.59;100947.44;5053468;28;20049;-57
2023/05/01 00:19:53;;;;;;;4.50;3.25;;;;;;;21.23;56.47;100940.34;5053940;28;20049;-57
2023/05/01 00:22:21;;;;;;;4.90;3.53;;;;;;;21.25;56.53;100943.75;5053487;28;20052;-56
2023/05/01 00:24:49;;;;;;;5.13;3.00;;;;;;;21.23;56.57;100935.81;5053566;28;20108;-57
2023/05/01 00:27:16;;;;;;;5.28;3.80;;;;;;;21.23;56.50;100935.81;5053632;28;20494;-57
2023/05/01 00:29:43;;;;;;;4.53;3.35;;;;;;;21.22;56.58;100936.78;5052876;28;20060;-56
2023/05/01 00:32:11;;;;;;;4.10;3.17;;;;;;;21.23;56.61;100927.75;5051797;28;20052;-56
2023/05/01 00:34:39;;;;;;;4.25;3.13;;;;;;;21.22;56.51;100942.19;5030858;28;20046;-56
2023/05/01 00:37:06;;;;;;;5.00;3.28;;;;;;;21.22;56.51;100927.88;5032600;28;20060;-56
2023/05/01 00:39:33;;;;;;;4.75;3.10;;;;;;;21.21;56.50;100927.03;5031647;28;20064;-56
2023/05/01 00:42:01;;;;;;;4.80;3.22;;;;;;;21.21;56.52;100918.94;5031518;28;20045;-56
2023/05/01 00:44:28;;;;;;;3.75;2.80;;;;;;;21.21;56.44;100918.94;5032237;28;20061;-56
2023/05/01 00:46:58;;;;;;;7.57;3.40;;;;;;;21.21;56.44;100918.94;5031702;28;20049;-56
2023/05/01 00:49:26;;;;;;;5.78;3.58;;;;;;;21.20;56.47;100917.25;5033700;28;20053;-56
2023/05/01 00:51:53;;;;;;;4.65;3.42;;;;;;;21.21;56.46;100918.09;5031700;28;20057;-56
2023/05/01 00:54:21;;;;;;;4.63;3.05;;;;;;;21.21;56.35;100923.47;5031506;28;20053;-56
2023/05/01 00:56:50;;;;;;;5.45;3.65;;;;;;;21.21;56.58;100915.41;5033523;28;20050;-57
2023/05/01 00:59:17;;;;;;;4.93;3.28;;;;;;;21.20;56.55;100909.16;5031871;28;20057;-56
2023/05/01 01:01:45;;;;;;;4.53;2.95;;;;;;;21.20;56.46;100919.94;5033027;28;20045;-56
2023/05/01 01:04:13;;;;;;;5.88;2.83;;;;;;;21.20;56.61;100921.78;5032808;28;20052;-56
2023/05/01 01:06:58;;;;;;;7.47;3.30;;;;;;;21.20;56.61;100917.25;5033024;28;20050;-56
2023/05/01 01:09:31;;;;;;;5.13;2.95;;;;;;;21.19;56.60;100912.88;5033322;28;20056;-56
2023/05/01 01:12:05;;;;;;;4.03;2.80;;;;;;;21.19;56.57;100904.78;5033098;28;20413;-56
2023/05/01 01:14:41;;;;;;;6.72;3.45;;;;;;;21.18;56.64;100904.91;5031389;28;20053;-57
2023/05/01 01:17:16;;;;;;;4.88;3.50;;;;;;;21.18;56.57;100905.75;5048396;28;20049;-57
2023/05/01 01:20:22;;;;;;;4.43;3.17;;;;;;;21.18;56.55;100897.69;5053265;28;20049;-56
2023/05/01 01:23:12;;;;;;;4.38;2.95;;;;;;;21.19;56.66;100909.31;5053187;28;20526;-56
2023/05/01 01:26:02;;;;;;;4.18;3.13;;;;;;;21.18;56.62;100905.75;5052265;28;20402;-56
2023/05/01 01:28:39;;;;;;;5.18;3.67;;;;;;;21.18;56.72;100910.28;5052670;28;20530;-56
2023/05/01 01:31:21;;;;;;;5.28;3.03;;;;;;;21.17;56.74;100901.38;5052264;28;20471;-56
2023/05/01 01:33:58;;;;;;;4.65;3.22;;;;;;;21.17;56.58;100901.38;5047739;28;20038;-56
2023/05/01 01:36:50;;;;;;;5.35;3.97;;;;;;;21.17;56.78;100901.38;5032304;28;20049;-57
2023/05/01 01:39:29;;;;;;;4.95;3.35;;;;;;;21.17;56.55;100901.38;5031250;28;20077;-56
2023/05/01 01:41:58;;;;;;;4.53;3.42;;;;;;;21.17;56.70;100897.84;5032769;28;20038;-57
2023/05/01 01:44:53;;;;;;;4.53;3.20;;;;;;;21.17;57.00;100895.13;5031405;28;20104;-56
2023/05/01 01:47:30;;;;;;;5.43;3.60;;;;;;;21.17;56.78;100901.38;5033081;28;20053;-56
2023/05/01 01:50:05;;;;;;;5.10;3.28;;;;;;;21.16;56.88;100894.28;5031227;28;20060;-56
2023/05/01 01:52:35;;;;;;;4.22;3.10;;;;;;;21.16;56.90;100902.38;5032694;28;20050;-56
2023/05/01 01:55:07;;;;;;;4.50;3.25;;;;;;;21.16;56.77;100912.28;5031024;28;20064;-56
2023/05/01 01:57:38;;;;;;;7.20;3.10;;;;;;;21.16;56.67;100909.59;5032904;28;20384;-56
2023/05/01 02:00:09;;;;;;;4.43;3.45;;;;;;;21.16;56.66;100906.91;5031255;28;20685;-56
2023/05/01 02:02:45;;;;;;;4.47;3.22;;;;;;;21.15;56.63;100911.44;5031648;28;20384;-56
2023/05/01 02:05:16;;;;;;;5.65;3.22;;;;;;;21.16;56.69;100917.69;5049934;28;20053;-56
2023/05/01 02:07:47;;;;;;;5.07;3.40;;;;;;;21.15;56.66;100911.44;5056564;28;20056;-56
2023/05/01 02:10:15;;;;;;;4.00;2.78;;;;;;;21.16;56.55;100910.44;5055485;28;20060;-56
2023/05/01 02:12:49;;;;;;;4.07;2.88;;;;;;;21.16;56.61;100915.00;5054484;28;20499;-56
2023/05/01 02:15:20;;;;;;;4.97;3.47;;;;;;;21.16;56.74;100913.16;5055364;28;20368;-56
2023/05/01 02:17:50;;;;;;;3.88;3.00;;;;;;;21.14;56.60;100907.03;5054240;28;20048;-56
2023/05/01 02:20:20;;;;;;;4.97;3.55;;;;;;;21.17;56.70;100901.38;5056064;28;20045;-56
2023/05/01 02:22:49;;;;;;;5.30;3.20;;;;;;;21.16;56.71;100898.84;5056463;28;20056;-56
2023/05/01 02:25:17;;;;;;;6.22;3.22;;;;;;;21.16;56.63;100896.13;5054396;28;20053;-56
2023/05/01 02:27:55;;;;;;;5.22;3.38;;;;;;;21.16;56.71;100893.44;5054668;28;20060;-56
2023/05/01 02:30:22;;;;;;;4.38;3.10;;;;;;;21.16;56.80;100896.13;5054755;28;20052;-56
2023/05/01 02:32:50;;;;;;;5.35;3.20;;;;;;;21.15;56.68;100889.06;5054905;28;20048;-55
2023/05/01 02:35:17;;;;;;;5.07;3.45;;;;;;;21.15;56.82;100894.44;5044952;28;20041;-56
2023/05/01 02:37:45;;;;;;;5.13;3.53;;;;;;;21.15;56.67;100887.22;5046217;28;20053;-56
2023/05/01 02:40:13;;;;;;;3.80;3.40;;;;;;;21.16;56.66;100893.44;5054480;28;20048;-56
2023/05/01 02:42:46;;;;;;;5.00;3.50;;;;;;;21.15;56.61;100891.75;5053915;28;20037;-56
2023/05/01 02:45:21;;;;;;;4.22;3.28;;;;;;;21.14;56.80;100880.13;5037769;28;20049;-56
2023/05/01 02:47:51;;;;;;;4.68;3.42;;;;;;;21.15;56.82;100881.00;5054951;28;20052;-56
2023/05/01 02:50:21;;;;;;;4.90;3.08;;;;;;;21.14;56.66;100882.81;5055430;28;20052;-56
2023/05/01 02:52:48;;;;;;;5.65;3.30;;;;;;;21.14;56.75;100882.81;5055655;28;20041;-56
2023/05/01 02:55:32;;;;;;;3.85;3.13;;;;;;;21.13;56.83;100869.50;5054201;28;20498;-55
2023/05/01 02:58:00;;;;;;;4.18;3.20;;;;;;;21.14;56.74;100871.19;5053076;28;20053;-56
2023/05/01 03:00:28;;;;;;;5.30;3.45;;;;;;;21.14;56.75;100879.25;5054097;28;20131;-56
2023/05/01 03:02:57;;;;;;;4.30;3.78;;;;;;;21.13;56.82;100870.34;5054863;28;20040;-56
2023/05/01 03:05:24;;;;;;;3.92;3.20;;;;;;;21.13;56.70;100864.97;5053954;28;20053;-55
2023/05/01 03:07:51;;;;;;;4.30;3.40;;;;;;;21.13;56.67;100877.56;5053651;28;20053;-56
2023/05/01 03:10:19;;;;;;;5.32;3.72;;;;;;;21.12;56.70;100876.72;5054970;28;20052;-56
2023/05/01 03:12:47;;;;;;;4.32;3.03;;;;;;;21.13;56.58;100882.97;5037213;28;20057;-56
2023/05/01 03:15:15;;;;;;;3.40;2.92;;;;;;;21.12;56.73;100884.81;5054350;28;20379;-56
2023/05/01 03:17:42;;;;;;;4.55;3.70;;;;;;;21.11;56.75;100880.41;5053517;28;20045;-56
2023/05/01 03:20:10;;;;;;;5.95;3.60;;;;;;;21.12;56.75;100884.81;5052988;28;20435;-56
2023/05/01 03:22:39;;;;;;;6.10;3.50;;;;;;;21.12;56.75;100874.03;5053701;28;20056;-56
2023/05/01 03:25:07;;;;;;;4.75;3.85;;;;;;;21.12;56.81;100878.56;5054717;28;20045;-56
2023/05/01 03:27:35;;;;;;;4.55;3.33;;;;;;;21.12;56.66;100876.72;5053211;28;20491;-56
2023/05/01 03:30:03;;;;;;;5.38;3.42;;;;;;;21.11;56.74;100875.03;5054766;28;20041;-56
2023/05/01 03:32:35;;;;;;;3.30;2.80;;;;;;;21.11;56.79;100875.03;5053613;28;20044;-56
2023/05/01 03:35:04;;;;;;;4.22;3.30;;;;;;;21.11;56.78;100875.03;5053392;28;20503;-56
2023/05/01 03:37:32;;;;;;;4.35;3.35;;;;;;;21.11;56.75;100869.66;5040190;28;20052;-56
2023/05/01 03:40:00;;;;;;;4.13;3.15;;;;;;;21.11;56.74;100872.34;5053119;28;20049;-56
2023/05/01 03:42:46;;;;;;;4.25;3.30;;;;;;;21.11;56.75;100875.03;5061204;28;20056;-56
2023/05/01 03:45:19;;;;;;;4.88;2.85;;;;;;;21.10;56.68;100873.31;5053026;28;20052;-56
2023/05/01 03:47:46;;;;;;;4.97;3.05;;;;;;;21.12;56.88;100865.13;5053238;28;20052;-56
2023/05/01 03:50:15;;;;;;;4.68;2.85;;;;;;;21.11;56.88;100868.81;5052939;28;20056;-56
2023/05/01 03:52:44;;;;;;;4.47;3.42;;;;;;;21.12;56.92;100879.41;5052927;28;20514;-56
2023/05/01 03:55:11;;;;;;;4.38;3.30;;;;;;;21.11;56.94;100875.03;5052942;28;20052;-56
2023/05/01 03:57:42;;;;;;;4.93;3.70;;;;;;;21.10;56.88;100873.31;5053261;28;20056;-56
2023/05/01 04:00:11;;;;;;;5.75;3.92;;;;;;;21.11;56.77;100876.88;5053087;28;20051;-56
2023/05/01 04:02:46;;;;;;;4.47;3.65;;;;;;;21.10;56.84;100878.69;5052670;28;20049;-56
2023/05/01 04:05:20;;;;;;;4.40;3.63;;;;;;;21.11;56.81;100874.19;5052970;28;20475;-56
2023/05/01 04:07:56;;;;;;;5.47;3.20;;;;;;;21.10;56.83;100870.63;5052643;28;20049;-56
2023/05/01 04:10:23;;;;;;;5.28;3.22;;;;;;;21.10;56.73;100872.47;5053737;28;20406;-56
2023/05/01 04:12:56;;;;;;;4.13;3.42;;;;;;;21.10;57.05;100873.31;5052217;28;20064;-55
2023/05/01 04:15:23;;;;;;;4.97;3.45;;;;;;;21.10;56.73;100869.78;5052502;28;20049;-56
2023/05/01 04:17:51;;;;;;;4.60;3.20;;;;;;;21.08;56.81;100875.31;5052538;28;20060;-55
2023/05/01 04:20:19;;;;;;;4.05;2.95;;;;;;;21.09;56.80;100871.63;5052418;28;20048;-56
2023/05/01 04:22:46;;;;;;;3.95;3.25;;;;;;;21.09;56.75;100876.16;5052720;28;20064;-56
2023/05/01 04:25:14;;;;;;;7.03;3.25;;;;;;;21.09;56.92;100866.25;5051661;28;20044;-57
2023/05/01 04:27:42;;;;;;;4.32;3.00;;;;;;;21.08;56.75;100872.63;5051817;28;20064;-56
2023/05/01 04:30:10;;;;;;;5.25;3.10;;;;;;;21.08;56.53;100878.00;5052010;28;20059;-56
2023/05/01 04:32:38;;;;;;;5.65;3.20;;;;;;;21.08;56.73;100875.31;5052532;28;20049;-56
2023/05/01 04:35:06;;;;;;;3.38;2.45;;;;;;;21.09;56.53;100878.84;5035920;28;20064;-56
2023/05/01 04:37:34;;;;;;;5.03;3.08;;;;;;;21.08;56.66;100877.16;5051193;28;20049;-56
2023/05/01 04:40:03;;;;;;;4.75;3.03;;;;;;;21.07;56.62;100881.69;5032053;28;20045;-56
2023/05/01 04:42:31;;;;;;;4.55;3.20;;;;;;;21.08;56.67;100877.16;5033517;28;20045;-56
2023/05/01 04:45:03;;;;;;;4.25;2.88;;;;;;;21.07;56.56;100879.00;5032465;28;20049;-56
2023/05/01 04:47:34;;;;;;;4.30;3.05;;;;;;;21.07;56.59;100881.69;5032028;28;20060;-56
2023/05/01 04:50:01;;;;;;;4.72;2.63;;;;;;;21.07;56.68;100883.53;5032988;28;20046;-56
2023/05/01 04:52:30;;;;;;;3.70;2.72;;;;;;;21.07;56.73;100881.69;5030996;28;20053;-57
2023/05/01 04:55:00;;;;;;;6.45;3.03;;;;;;;21.07;56.62;100884.38;5031677;28;20045;-56
2023/05/01 04:57:30;;;;;;;3.83;2.80;;;;;;;21.07;56.47;100887.09;5031302;28;20103;-57
2023/05/01 04:59:58;;;;;;;4.75;2.80;;;;;;;21.08;56.56;100893.31;5031396;28;20610;-56
2023/05/01 05:02:26;;;;;;;5.75;2.47;;;;;;;21.07;56.50;100895.16;5031847;28;20052;-56
2023/05/01 05:04:53;;;;;;;4.35;2.72;;;;;;;21.07;56.49;100897.00;5032419;28;20060;-56
2023/05/01 05:07:22;;;;;;;4.47;2.85;;;;;;;21.07;56.56;100899.69;5042261;28;20056;-56
2023/05/01 05:10:12;;;;;;;6.45;2.70;;;;;;;21.06;56.39;100890.75;5055979;28;20059;-56
2023/05/01 05:12:45;;;;;;;5.43;2.85;;;;;;;21.06;56.48;100896.13;5052004;28;20044;-56
2023/05/01 05:15:12;;;;;;;7.38;2.63;;;;;;;21.05;56.37;100897.13;5053027;28;20394;-56
2023/05/01 05:17:40;;;;;;;3.80;2.22;;;;;;;21.05;56.50;100902.50;5051817;28;20507;-56
2023/05/01 05:20:08;;;;;;;3.83;2.33;;;;;;;21.06;56.40;100903.34;5051671;28;20052;-56
2023/05/01 05:22:36;;;;;;;2.83;2.28;;;;;;;21.06;56.47;100892.59;5051553;28;20052;-56
2023/05/01 05:25:21;;;;;;;3.58;2.78;;;;;;;21.07;56.58;100902.38;5052283;28;20053;-56
2023/05/01 05:27:48;;;;;;;3.67;2.42;;;;;;;21.07;56.49;100905.91;5051593;28;20491;-56
2023/05/01 05:30:15;;;;;;;5.25;3.17;;;;;;;21.08;56.43;100898.69;5052335;28;20045;-56
2023/05/01 05:32:46;;;;;;;4.70;2.70;;;;;;;21.08;56.39;100901.38;5050921;28;20059;-56
2023/05/01 05:35:13;;;;;;;3.92;2.38;;;;;;;21.07;56.25;100905.91;5051587;28;20361;-56
2023/05/01 05:37:41;;;;;;;5.57;2.83;;;;;;;21.08;56.37;100906.78;5040659;28;20506;-56
2023/05/01 05:40:12;;;;;;;4.05;2.70;;;;;;;21.06;56.32;100909.59;5033625;28;20060;-56
2023/05/01 05:42:50;;;;;;;3.35;2.53;;;;;;;21.07;56.44;100905.91;5035875;28;20061;-56
2023/05/01 05:45:18;;;;;;;4.00;2.60;;;;;;;21.07;56.33;100905.91;5035386;28;20054;-56
2023/05/01 05:47:46;;;;;;;6.07;2.65;;;;;;;21.06;56.40;100914.13;5035821;28;20050;-56
2023/05/01 05:50:13;;;;;;;3.75;2.50;;;;;;;21.05;56.31;100907.88;5035388;28;20054;-56
2023/05/01 05:52:44;;;;;;;3.05;2.30;;;;;;;21.05;56.29;100915.97;5035333;28;20056;-56
2023/05/01 05:55:12;;;;;;;3.17;2.35;;;;;;;21.05;56.36;100917.81;5035243;28;20057;-56
2023/05/01 05:57:44;;;;;;;3.65;2.50;;;;;;;21.05;56.31;100921.34;5035440;28;20053;-56
2023/05/01 06:00:14;;;;;;;3.63;2.55;;;;;;;21.05;56.18;100917.81;5035265;28;20060;-56
2023/05/01 06:02:48;;;;;;;2.85;2.22;;;;;;;21.05;56.36;100924.03;5035326;28;20049;-56
2023/05/01 06:05:16;;;;;;;4.45;2.58;;;;;;;21.04;56.20;100927.72;5036042;28;20049;-56
2023/05/01 06:07:44;;;;;;;3.75;2.65;;;;;;;21.04;56.13;100930.41;5054766;28;20052;-56
2023/05/01 06:10:11;;;;;;;3.80;2.53;;;;;;;21.05;56.31;100928.56;5055877;28;20057;-56
2023/05/01 06:12:40;;;;;;;4.63;2.35;;;;;;;21.04;56.39;100930.41;5054804;28;20056;-56
2023/05/01 06:15:17;;;;;;;4.28;2.30;;;;;;;21.04;56.13;100930.41;5055067;28;20357;-56
2023/05/01 06:17:51;;;;;;;4.07;2.80;;;;;;;21.04;56.18;100933.13;5054144;28;20045;-56
2023/05/01 06:20:19;;;;;;;4.63;2.70;;;;;;;21.02;56.13;100926.16;5056150;28;20052;-58
2023/05/01 06:22:49;;;;;;;3.67;2.65;;;;;;;21.04;56.38;100925.03;5054462;28;20496;-56
2023/05/01 06:25:29;;;;;;;3.67;2.63;;;;;;;21.03;56.40;100931.41;5054420;28;20052;-57
2023/05/01 06:28:00;;;;;;;4.90;2.53;;;;;;;21.03;56.35;100934.13;5054181;28;20059;-57
2023/05/01 06:30:29;;;;;;;2.78;2.13;;;;;;;21.03;56.29;100931.41;5054475;28;20053;-55
2023/05/01 06:32:56;;;;;;;4.45;3.05;;;;;;;21.04;56.30;100934.97;5054541;28;20068;-56
2023/05/01 06:35:27;;;;;;;5.57;3.13;;;;;;;21.03;56.52;100933.28;5054185;28;20045;-55
2023/05/01 06:37:59;;;;;;;3.42;2.42;;;;;;;21.03;56.38;100942.19;5041921;28;20483;-56
2023/05/01 06:40:26;;;;;;;4.78;2.80;;;;;;;21.03;56.51;100944.03;5032317;28;20056;-56
2023/05/01 06:42:56;;;;;;;3.53;2.17;;;;;;;21.03;56.54;100947.56;5035293;28;20050;-56
2023/05/01 06:45:27;;;;;;;3.40;2.70;;;;;;;21.03;56.50;100944.88;5034448;28;20046;-56
2023/05/01 06:47:55;;;;;;;4.03;2.55;;;;;;;21.03;56.51;100954.81;5034483;28;20058;-56
2023/05/01 06:50:22;;;;;;;3.88;2.60;;;;;;;21.03;56.61;100957.50;5035614;28;20518;-56
2023/05/01 06:52:57;;;;;;;3.88;2.70;;;;;;;21.02;56.53;100950.38;5034064;28;20066;-56
2023/05/01 06:55:25;;;;;;;3.45;2.63;;;;;;;21.01;56.50;100949.53;5035440;28;20054;-56
2023/05/01 06:57:53;;;;;;;4.22;2.75;;;;;;;21.03;56.67;100960.19;5033975;28;20049;-56
2023/05/01 07:00:21;;;;;;;3.75;2.60;;;;;;;21.02;56.60;100962.00;5034761;28;20057;-56
2023/05/01 07:02:48;;;;;;;4.50;2.70;;;;;;;21.03;56.62;100961.03;5034341;28;20043;-56
2023/05/01 07:05:16;;;;;;;5.90;2.80;;;;;;;21.02;56.65;100961.16;5035334;28;20491;-57
2023/05/01 07:07:44;;;;;;;4.07;2.55;;;;;;;21.01;56.47;100960.31;5035307;28;20049;-57
2023/05/01 07:10:26;;;;;;;3.67;2.92;;;;;;;21.03;56.51;100966.41;5034318;28;20061;-56
2023/05/01 07:12:54;;;;;;;3.20;2.30;;;;;;;21.04;56.54;100964.56;5035339;28;20053;-56
2023/05/01 07:15:22;;;;;;;3.97;2.85;;;;;;;21.04;56.62;100964.56;5034924;28;20045;-56
2023/05/01 07:17:49;;;;;;;4.18;3.03;;;;;;;21.03;56.62;100958.34;5049540;28;20045;-56
2023/05/01 07:20:17;;;;;;;6.20;2.80;;;;;;;21.05;56.65;100961.72;5055572;28;20482;-56
2023/05/01 07:22:45;;;;;;;7.45;2.85;;;;;;;21.04;56.60;100960.03;5055041;28;20045;-57
2023/05/01 07:25:13;;;;;;;3.38;2.67;;;;;;;21.04;56.58;100957.34;5054762;28;20056;-56
2023/05/01 07:27:40;;;;;;;4.43;3.03;;;;;;;21.05;56.62;100955.50;5055119;28;20045;-56
2023/05/01 07:30:08;;;;;;;5.53;2.90;;;;;;;21.04;56.59;100960.03;5054707;28;20401;-56
2023/05/01 07:32:35;;;;;;;4.68;3.35;;;;;;;21.04;56.44;100961.88;5054593;28;20451;-57
2023/05/01 07:35:03;;;;;;;3.85;3.30;;;;;;;21.03;56.46;100957.50;5054827;28;20056;-56
2023/05/01 07:37:30;;;;;;;4.55;3.85;;;;;;;21.04;56.36;100961.88;5054310;28;20037;-57
2023/05/01 07:39:57;;;;;;;7.35;5.47;;;;;;;20.98;55.86;100961.44;5048387;28;20042;-59
2023/05/01 07:42:26;;;;;;;6.65;5.97;;;;;;;20.93;55.98;100962.84;5033849;28;20045;-59
2023/05/01 07:44:53;;;;;;;8.65;6.63;;;;;;;20.86;56.33;100959.00;5034515;28;20052;-60
2023/05/01 07:47:21;;;;;;;7.80;6.18;;;;;;;20.79;56.51;100961.41;5034449;28;20491;-60
2023/05/01 07:49:48;;;;;;;9.10;6.15;;;;;;;20.74;56.76;100959.13;5034539;28;20361;-59
2023/05/01 07:52:15;;;;;;;8.38;5.43;;;;;;;20.71;57.03;100953.19;5034561;28;20049;-59
2023/05/01 07:54:48;;;;;;;6.40;4.85;;;;;;;20.68;57.30;100962.38;5034080;28;20056;-60
2023/05/01 07:57:15;;;;;;;6.68;5.32;;;;;;;20.67;57.26;100955.28;5034001;28;20053;-60
2023/05/01 07:59:43;;;;;;;7.80;6.20;;;;;;;20.66;56.95;100961.66;5034995;28;20057;-57
2023/05/01 08:02:13;;;;;;;7.30;6.05;;;;;;;20.63;57.02;100956.56;5033299;28;20049;-56
2023/05/01 08:04:40;;;;;;;7.00;5.53;;;;;;;20.63;56.93;100950.31;5039783;28;20050;-57
2023/05/01 08:07:08;;;;;;;8.35;5.25;;;;;;;20.63;57.11;100956.56;5054190;28;20049;-56
2023/05/01 08:09:35;;;;;;;7.22;4.90;;;;;;;20.64;57.40;100957.41;5053798;28;20055;-59
2023/05/01 08:12:02;;;;;;;6.68;5.28;;;;;;;20.63;57.41;100964.63;5054211;28;20053;-60
2023/05/01 08:14:30;;;;;;;9.02;6.30;;;;;;;20.62;57.30;100962.94;5053821;28;20048;-58
2023/05/01 08:16:58;;;;;;;7.38;5.65;;;;;;;20.61;57.37;100963.88;5053681;28;20407;-59
2023/05/01 08:19:26;;;;;;;7.97;5.90;;;;;;;20.61;57.26;100966.59;5054218;28;20052;-57
2023/05/01 08:21:54;;;;;;;7.47;6.07;;;;;;;20.61;57.11;100966.59;5053584;28;20052;-57
2023/05/01 08:24:21;;;;;;;6.72;5.10;;;;;;;20.61;57.21;100963.88;5053717;28;20048;-57
2023/05/01 08:26:50;;;;;;;8.23;6.03;;;;;;;20.61;56.81;100963.88;5053177;28;20045;-56
2023/05/01 08:29:17;;;;;;;8.93;5.60;;;;;;;20.60;56.65;100954.13;5053510;28;20071;-57
2023/05/01 08:31:44;;;;;;;7.47;6.38;;;;;;;20.58;56.59;100958.81;5053135;28;20045;-56
2023/05/01 08:34:12;;;;;;;7.22;6.13;;;;;;;20.59;56.39;100965.88;5053838;28;20064;-56
2023/05/01 08:36:39;;;;;;;11.20;5.22;;;;;;;20.58;56.24;100958.81;5050907;28;20052;-57
2023/05/01 08:39:06;;;;;;;7.88;5.75;;;;;;;20.60;56.18;100961.34;5033544;28;20065;-57
2023/05/01 08:41:39;;;;;;;7.70;5.35;;;;;;;20.59;56.12;100965.88;5031987;28;20048;-57
2023/05/01 08:44:08;;;;;;;6.85;5.50;;;;;;;20.60;55.90;100964.03;5033130;28;20052;-56
2023/05/01 08:46:57;;;;;;;7.00;5.60;;;;;;;20.58;55.71;100968.69;5033064;28;20093;-57
2023/05/01 08:49:26;;;;;;;8.02;4.85;;;;;;;20.58;55.10;100971.38;5033295;28;20049;-58
2023/05/01 08:51:55;;;;;;;11.23;5.80;;;;;;;20.55;55.01;100964.47;5033041;28;20057;-58
2023/05/01 08:54:26;;;;;;;7.63;4.90;;;;;;;20.53;54.92;100966.41;5033253;28;20384;-56
2023/05/01 08:56:56;;;;;;;8.90;4.75;;;;;;;20.54;55.15;100964.56;5032844;28;20481;-56
2023/05/01 08:59:25;;;;;;;7.38;4.90;;;;;;;20.55;55.02;100969.84;5033660;28;20053;-56
2023/05/01 09:01:54;;;;;;;6.18;5.18;;;;;;;20.58;54.98;100964.19;5033031;28;20479;-56
2023/05/01 09:04:22;;;;;;;7.97;4.97;;;;;;;20.61;55.06;100958.50;5033169;28;20056;-56
2023/05/01 09:06:50;;;;;;;6.43;3.83;;;;;;;20.64;54.95;100960.94;5033507;28;20045;-56
2023/05/01 09:09:17;;;;;;;5.45;4.25;;;;;;;20.67;55.24;100962.50;5032402;28;20053;-56
2023/05/01 09:11:47;;;;;;;4.22;3.38;;;;;;;20.70;55.27;100963.09;5032694;28;20052;-56
2023/05/01 09:14:16;;;;;;;6.25;4.30;;;;;;;20.72;55.23;100960.25;5035191;28;20053;-56
2023/05/01 09:16:43;;;;;;;6.70;3.90;;;;;;;20.74;55.11;100960.94;5037104;28;20045;-57
2023/05/01 09:19:10;;;;;;;6.97;4.30;;;;;;;20.74;55.11;100959.13;5041543;28;20505;-56
2023/05/01 09:21:39;;;;;;;4.35;3.55;;;;;;;20.77;55.05;100951.75;5057179;28;20053;-57
2023/05/01 09:24:07;;;;;;;7.30;4.43;;;;;;;20.78;54.86;100950.75;5056760;28;20053;-56
2023/05/01 09:26:38;;;;;;;8.50;4.55;;;;;;;20.78;54.67;100948.06;5056826;28;20045;-57
2023/05/01 09:29:05;;;;;;;6.95;4.05;;;;;;;20.79;54.89;100949.81;5056154;28;20506;-57
2023/05/01 09:31:33;;;;;;;5.22;3.83;;;;;;;20.80;54.81;100949.66;5056201;28;20060;-56
2023/05/01 09:34:03;;;;;;;4.50;3.30;;;;;;;20.82;54.98;100954.88;5056607;28;20045;-56
2023/05/01 09:36:32;;;;;;;5.00;3.70;;;;;;;20.83;55.10;100953.91;5055097;28;20045;-56
2023/05/01 09:39:00;;;;;;;7.57;3.83;;;;;;;20.84;55.18;100952.91;5036510;28;20495;-57
2023/05/01 09:41:31;;;;;;;7.32;3.88;;;;;;;20.84;54.99;100956.47;5036371;28;20371;-56
2023/05/01 09:44:00;;;;;;;6.38;4.07;;;;;;;20.84;54.38;100944.84;5035040;28;20048;-56
2023/05/01 09:46:27;;;;;;;5.90;3.63;;;;;;;20.85;54.44;100947.38;5036222;28;20046;-56
2023/05/01 09:48:57;;;;;;;6.00;3.58;;;;;;;20.85;54.50;100944.69;5036661;28;20045;-56
2023/05/01 09:51:29;;;;;;;5.80;4.10;;;;;;;20.84;54.10;100948.38;5036299;28;20056;-56
2023/05/01 09:53:59;;;;;;;6.47;3.55;;;;;;;20.85;53.67;100951.91;5036228;28;20056;-57
2023/05/01 09:56:31;;;;;;;6.30;4.25;;;;;;;20.86;53.56;100945.53;5036114;28;20045;-56
2023/05/01 09:59:14;;;;;;;5.47;3.53;;;;;;;20.85;53.64;100952.78;5036452;28;20049;-57
2023/05/01 10:01:44;;;;;;;6.15;3.80;;;;;;;20.85;53.60;100958.16;5036121;28;20428;-56
2023/05/01 10:04:12;;;;;;;4.30;3.40;;;;;;;20.86;53.33;100953.63;5035931;28;20045;-56
2023/05/01 10:06:40;;;;;;;4.88;3.13;;;;;;;20.86;53.15;100951.78;5036320;28;20042;-56
2023/05/01 10:09:16;;;;;;;6.05;3.50;;;;;;;20.87;53.11;100955.34;5055391;28;20487;-56
2023/05/01 10:11:52;;;;;;;4.03;3.10;;;;;;;20.87;53.07;100949.97;5055787;28;20114;-56
2023/05/01 10:14:22;;;;;;;6.47;3.28;;;;;;;20.87;52.92;100963.41;5055798;28;20044;-56
2023/05/01 10:16:51;;;;;;;6.88;3.40;;;;;;;20.86;53.27;100956.31;5055380;28;20045;-56
2023/05/01 10:19:20;;;;;;;5.53;3.30;;;;;;;20.87;52.79;100963.41;5055616;28;20045;-57
2023/05/01 10:21:47;;;;;;;9.50;3.47;;;;;;;20.87;52.88;100960.72;5055960;28;20045;-56
2023/05/01 10:24:15;;;;;;;6.95;3.50;;;;;;;20.88;52.92;100959.72;5055416;28;20053;-56
2023/05/01 10:26:43;;;;;;;5.28;3.15;;;;;;;20.87;52.81;100958.88;5054901;28;20045;-56
2023/05/01 10:29:11;;;;;;;5.53;3.65;;;;;;;20.88;53.03;100957.03;5055706;28;20499;-56
2023/05/01 10:31:39;;;;;;;4.25;3.35;;;;;;;20.88;52.87;100954.34;5055717;28;20044;-57
2023/05/01 10:34:15;;;;;;;4.82;3.22;;;;;;;20.87;52.73;100944.56;5055492;28;20045;-57
2023/05/01 10:36:53;;;;;;;6.70;3.30;;;;;;;20.88;53.10;100949.81;5052534;28;20037;-56
2023/05/01 10:39:34;;;;;;;5.13;3.42;;;;;;;20.88;53.57;100954.34;5035935;28;20526;-56
2023/05/01 10:42:04;;;;;;;5.25;3.50;;;;;;;20.87;52.74;100953.50;5034291;28;20045;-56
2023/05/01 10:44:33;;;;;;;8.13;3.58;;;;;;;20.88;52.99;100943.56;5033730;28;20033;-57
2023/05/01 10:47:22;;;;;;;5.53;3.83;;;;;;;20.88;51.76;100951.66;5035304;28;20518;-57
2023/05/01 10:50:11;;;;;;;4.60;3.53;;;;;;;20.87;51.04;100953.50;5035594;28;20052;-56
2023/05/01 10:53:13;;;;;;;5.65;3.35;;;;;;;20.86;51.37;100945.53;5035010;28;20053;-56
2023/05/01 10:55:43;;;;;;;4.50;2.75;;;;;;;20.85;51.29;100943.84;5035100;28;20041;-56
2023/05/01 10:58:12;;;;;;;5.88;3.13;;;;;;;20.85;51.35;100939.31;5034735;28;20839;-56
2023/05/01 11:00:41;;;;;;;5.65;2.90;;;;;;;20.85;51.77;100942.00;5035244;28;20510;-56
2023/05/01 11:03:20;;;;;;;5.70;3.63;;;;;;;20.83;51.94;100933.22;5034943;28;20387;-56
2023/05/01 11:06:01;;;;;;;7.47;3.38;;;;;;;20.83;51.71;100937.78;5044556;28;20045;-56
2023/05/01 11:08:30;;;;;;;6.82;4.00;;;;;;;20.81;52.12;100934.34;5054625;28;20510;-56
2023/05/01 11:11:20;;;;;;;4.70;2.97;;;;;;;20.79;52.79;100937.19;5054738;28;20048;-56
2023/05/01 11:14:05;;;;;;;6.07;4.68;;;;;;;20.80;53.66;100935.34;5054399;28;20068;-56
2023/05/01 11:16:40;;;;;;;6.25;3.90;;;;;;;20.78;54.77;100932.78;5054068;28;20049;-56
2023/05/01 11:19:09;;;;;;;5.80;3.38;;;;;;;20.77;58.65;100924.84;5054902;28;20056;-56
2023/05/01 11:21:40;;;;;;;7.85;3.88;;;;;;;20.73;58.08;100924.28;5049655;28;20056;-56
2023/05/01 11:24:08;;;;;;;7.15;4.10;;;;;;;20.70;58.12;100920.06;5034834;28;20049;-55
2023/05/01 11:26:41;;;;;;;6.45;4.10;;;;;;;20.67;59.11;100920.31;5041170;28;20044;-56
2023/05/01 11:29:09;;;;;;;4.82;3.90;;;;;;;20.63;58.70;100924.28;5054439;28;20494;-56
2023/05/01 11:31:38;;;;;;;7.97;4.07;;;;;;;20.60;58.20;100915.63;5054520;28;20049;-57
2023/05/01 11:34:05;;;;;;;6.68;3.65;;;;;;;20.57;57.95;100924.81;5054825;28;20049;-57
2023/05/01 11:36:52;;;;;;;6.63;3.80;;;;;;;20.53;58.82;100918.00;5053253;28;20045;-54
2023/05/01 11:39:20;;;;;;;5.07;3.83;;;;;;;20.51;58.55;100911.94;5054460;28;20068;-55